createdAt,value
2022-11-24T00:01:30.928Z,68.60
2022-11-24T00:04:03.665Z,67.38
2022-11-24T00:06:35.355Z,68.39
2022-11-24T00:09:07.090Z,68.99
2022-11-24T00:11:37.626Z,68.47
2022-11-24T00:14:06.837Z,69.32
2022-11-24T00:16:37.476Z,70.68
2022-11-24T00:19:09.772Z,71.21
2022-11-24T00:21:38.888Z,70.39
2022-11-24T00:24:06.819Z,69.21
2022-11-24T00:26:37.567Z,68.71
2022-11-24T00:29:07.996Z,67.75
2022-11-24T00:31:42.758Z,64.38
2022-11-24T00:34:26.583Z,63.97
2022-11-24T00:36:53.801Z,63.48
2022-11-24T00:39:21.025Z,62.44
2022-11-24T00:41:48.272Z,63.41
2022-11-24T00:44:15.776Z,65.15
2022-11-24T00:46:43.070Z,64.49
2022-11-24T00:49:10.372Z,64.09
2022-11-24T00:51:38.715Z,61.38
2022-11-24T00:54:06.541Z,61.08
2022-11-24T00:56:34.758Z,62.94
2022-11-24T00:59:02.058Z,61.25
2022-11-24T01:01:33.785Z,61.58
2022-11-24T01:04:02.133Z,60.88
2022-11-24T01:06:32.325Z,63.08
2022-11-24T01:09:03.747Z,62.85
2022-11-24T01:11:54.528Z,62.56
2022-11-24T01:14:25.216Z,63.27
2022-11-24T01:16:56.409Z,61.83
2022-11-24T01:19:24.342Z,62.62
2022-11-24T01:21:52.305Z,61.68
2022-11-24T01:24:19.840Z,62.67
2022-11-24T01:26:47.152Z,63.33
2022-11-24T01:29:14.617Z,63.97
2022-11-24T01:31:44.368Z,64.36
2022-11-24T01:34:12.957Z,64.80
2022-11-24T01:36:40.315Z,62.43
2022-11-24T01:39:07.953Z,62.99
2022-11-24T01:41:36.065Z,63.25
2022-11-24T01:44:29.867Z,63.38
2022-11-24T01:47:29.195Z,64.59
2022-11-24T01:50:00.495Z,65.59
2022-11-24T01:52:40.013Z,64.32
2022-11-24T01:55:15.895Z,64.25
2022-11-24T01:58:05.481Z,64.11
2022-11-24T02:00:36.554Z,64.08
2022-11-24T02:03:04.134Z,63.66
2022-11-24T02:05:58.405Z,63.02
2022-11-24T02:08:44.156Z,62.73
2022-11-24T02:11:11.654Z,61.92
2022-11-24T02:13:42.384Z,63.64
2022-11-24T02:16:12.588Z,62.65
2022-11-24T02:18:42.250Z,63.26
2022-11-24T02:21:13.994Z,62.60
2022-11-24T02:23:53.552Z,61.15
2022-11-24T02:26:45.370Z,60.89
2022-11-24T02:29:15.189Z,60.95
2022-11-24T02:32:00.580Z,60.24
2022-11-24T02:34:27.927Z,60.09
2022-11-24T02:36:55.306Z,59.46
2022-11-24T02:39:22.604Z,60.36
2022-11-24T02:42:03.253Z,60.43
2022-11-24T02:44:39.826Z,61.65
2022-11-24T02:47:12.255Z,61.78
2022-11-24T02:49:39.765Z,62.83
2022-11-24T02:52:07.817Z,62.61
2022-11-24T02:54:35.345Z,63.22
2022-11-24T02:57:02.916Z,64.06
2022-11-24T02:59:30.310Z,63.80
2022-11-24T03:01:57.805Z,63.18
2022-11-24T03:04:25.203Z,63.76
2022-11-24T03:06:52.583Z,63.49
2022-11-24T03:09:20.867Z,63.44
2022-11-24T03:11:48.307Z,63.17
2022-11-24T03:14:15.580Z,63.36
2022-11-24T03:16:42.785Z,65.33
2022-11-24T03:19:10.383Z,65.37
2022-11-24T03:21:37.861Z,65.66
2022-11-24T03:24:05.993Z,65.33
2022-11-24T03:26:35.370Z,64.91
2022-11-24T03:29:02.728Z,65.54
2022-11-24T03:31:30.141Z,66.36
2022-11-24T03:33:57.506Z,67.32
2022-11-24T03:36:24.819Z,67.05
2022-11-24T03:38:52.353Z,65.98
2022-11-24T03:41:19.803Z,66.45
2022-11-24T03:43:47.314Z,65.90
2022-11-24T03:46:14.718Z,65.60
2022-11-24T03:48:42.183Z,66.08
2022-11-24T03:51:11.192Z,64.66
2022-11-24T03:53:39.923Z,64.28
2022-11-24T03:56:07.505Z,63.97
2022-11-24T03:58:34.917Z,64.20
2022-11-24T04:01:03.587Z,63.64
2022-11-24T04:03:31.292Z,63.68
2022-11-24T04:05:58.876Z,62.79
2022-11-24T04:08:26.205Z,62.64
2022-11-24T04:10:54.838Z,62.65
2022-11-24T04:13:25.964Z,61.85
2022-11-24T04:15:53.756Z,62.76
2022-11-24T04:18:21.848Z,62.75
2022-11-24T04:20:52.876Z,61.96
2022-11-24T04:23:22.146Z,62.25
2022-11-24T04:25:49.716Z,61.42
2022-11-24T04:28:16.914Z,61.93
2022-11-24T04:30:45.164Z,61.17
2022-11-24T04:33:13.329Z,61.81
2022-11-24T04:35:40.700Z,63.12
2022-11-24T04:38:08.103Z,64.16
2022-11-24T04:40:35.422Z,65.13
2022-11-24T04:43:02.681Z,65.32
2022-11-24T04:45:29.929Z,66.32
2022-11-24T04:47:57.047Z,65.09
2022-11-24T04:50:24.296Z,66.17
2022-11-24T04:52:52.451Z,67.21
2022-11-24T04:55:19.762Z,66.94
2022-11-24T04:57:46.966Z,66.10
2022-11-24T05:00:14.998Z,65.15
2022-11-24T05:02:42.278Z,64.94
2022-11-24T05:05:09.800Z,64.76
2022-11-24T05:07:37.036Z,63.05
2022-11-24T05:10:26.788Z,61.85
2022-11-24T05:12:56.809Z,61.82
2022-11-24T05:15:24.232Z,62.47
2022-11-24T05:17:59.497Z,63.04
2022-11-24T05:20:26.636Z,62.68
2022-11-24T05:22:53.761Z,64.59
2022-11-24T05:25:21.118Z,65.32
2022-11-24T05:27:48.323Z,65.81
2022-11-24T05:30:15.563Z,65.58
2022-11-24T05:32:42.710Z,66.08
2022-11-24T05:35:09.982Z,66.67
2022-11-24T05:37:38.173Z,66.29
2022-11-24T05:40:06.973Z,67.87
2022-11-24T05:42:46.275Z,68.85
2022-11-24T05:45:21.674Z,68.50
2022-11-24T05:47:51.409Z,68.14
2022-11-24T05:50:22.304Z,67.87
2022-11-24T05:52:50.185Z,67.42
2022-11-24T05:55:19.517Z,66.37
2022-11-24T05:57:47.017Z,65.69
2022-11-24T06:00:17.953Z,66.30
2022-11-24T06:02:45.236Z,67.50
2022-11-24T06:05:12.479Z,68.22
2022-11-24T06:07:43.892Z,67.13
2022-11-24T06:10:18.642Z,66.30
2022-11-24T06:12:46.830Z,67.62
2022-11-24T06:15:14.607Z,67.42
2022-11-24T06:17:42.048Z,68.20
2022-11-24T06:20:11.833Z,67.33
2022-11-24T06:22:39.191Z,67.15
2022-11-24T06:25:06.919Z,66.77
2022-11-24T06:27:34.204Z,67.74
2022-11-24T06:30:01.371Z,66.61
2022-11-24T06:32:28.708Z,65.28
2022-11-24T06:34:56.135Z,65.43
2022-11-24T06:37:23.341Z,64.61
2022-11-24T06:39:50.614Z,63.36
2022-11-24T06:42:21.615Z,63.56
2022-11-24T06:44:49.033Z,64.45
2022-11-24T06:47:16.445Z,63.94
2022-11-24T06:49:43.601Z,65.07
2022-11-24T06:52:11.244Z,64.92
2022-11-24T06:54:38.597Z,65.63
2022-11-24T06:57:05.773Z,64.73
2022-11-24T06:59:33.011Z,64.64
2022-11-24T07:02:00.453Z,64.15
2022-11-24T07:04:27.831Z,63.60
2022-11-24T07:06:54.992Z,63.58
2022-11-24T07:09:22.392Z,63.98
2022-11-24T07:11:55.508Z,63.38
2022-11-24T07:14:23.182Z,63.25
2022-11-24T07:16:50.459Z,64.40
2022-11-24T07:19:23.141Z,65.10
2022-11-24T07:21:52.365Z,65.66
2022-11-24T07:24:19.805Z,66.13
2022-11-24T07:26:47.389Z,65.92
2022-11-24T07:29:15.049Z,65.79
2022-11-24T07:31:42.684Z,66.02
2022-11-24T07:34:10.244Z,65.96
2022-11-24T07:36:37.527Z,65.80
2022-11-24T07:39:07.189Z,65.60
2022-11-24T07:41:34.652Z,66.29
2022-11-24T07:44:02.163Z,67.67
2022-11-24T07:46:29.550Z,68.18
2022-11-24T07:48:56.926Z,69.46
2022-11-24T07:51:24.510Z,70.44
2022-11-24T07:53:51.822Z,70.20
2022-11-24T07:56:19.262Z,67.53
2022-11-24T07:58:51.393Z,68.46
2022-11-24T08:01:20.807Z,69.29
2022-11-24T08:03:48.291Z,69.60
2022-11-24T08:06:27.291Z,69.89
2022-11-24T08:09:02.829Z,70.84
2022-11-24T08:11:31.590Z,72.18
2022-11-24T08:13:59.037Z,71.51
2022-11-24T08:16:26.592Z,69.29
2022-11-24T08:18:58.487Z,67.19
2022-11-24T08:21:50.943Z,68.11
2022-11-24T08:24:18.341Z,69.75
2022-11-24T08:26:45.725Z,68.56
2022-11-24T08:29:13.145Z,67.76
2022-11-24T08:31:40.541Z,69.03
2022-11-24T08:34:07.943Z,69.08
2022-11-24T08:36:35.207Z,69.60
2022-11-24T08:39:03.503Z,70.28
2022-11-24T08:41:33.228Z,69.93
2022-11-24T08:44:00.752Z,69.45
2022-11-24T08:46:28.155Z,70.08
2022-11-24T08:48:55.874Z,70.27
2022-11-24T08:51:26.904Z,69.89
2022-11-24T08:54:00.787Z,70.85
2022-11-24T08:56:34.244Z,70.33
2022-11-24T08:59:02.513Z,69.65
2022-11-24T09:01:30.315Z,69.30
2022-11-24T09:03:58.272Z,69.68
2022-11-24T09:06:30.938Z,69.86
2022-11-24T09:09:03.110Z,70.00
2022-11-24T09:11:33.793Z,69.59
2022-11-24T09:14:01.262Z,67.40
2022-11-24T09:16:29.855Z,68.41
2022-11-24T09:19:08.115Z,65.84
2022-11-24T09:21:39.107Z,67.89
2022-11-24T09:24:08.228Z,67.89
2022-11-24T09:26:43.111Z,69.16
2022-11-24T09:29:13.735Z,65.23
2022-11-24T09:31:41.479Z,66.93
2022-11-24T09:34:15.528Z,68.43
2022-11-24T09:36:43.342Z,66.97
2022-11-24T09:39:15.679Z,67.63
2022-11-24T09:42:15.777Z,68.15
2022-11-24T09:45:12.466Z,67.26
2022-11-24T09:48:11.227Z,67.96
2022-11-24T09:50:39.701Z,66.68
2022-11-24T09:53:46.446Z,68.19
2022-11-24T09:56:32.443Z,69.00
2022-11-24T09:59:16.326Z,66.66
2022-11-24T10:01:48.281Z,66.84
2022-11-24T10:04:52.501Z,67.74
2022-11-24T10:07:31.261Z,68.13
2022-11-24T10:10:24.269Z,66.07
2022-11-24T10:14:03.348Z,67.22
2022-11-24T10:17:23.205Z,63.74
2022-11-24T10:20:03.605Z,66.84
2022-11-24T10:23:12.210Z,65.82
2022-11-24T10:26:00.204Z,66.62
2022-11-24T10:28:47.780Z,61.46
2022-11-24T10:31:39.689Z,62.49
2022-11-24T10:34:35.840Z,55.80
2022-11-24T10:37:12.594Z,61.73
2022-11-24T10:40:17.222Z,58.29
2022-11-24T10:42:58.266Z,62.32
2022-11-24T10:45:31.667Z,59.90
2022-11-24T10:47:59.110Z,62.46
2022-11-24T10:50:47.093Z,59.74
2022-11-24T10:53:36.074Z,62.68
2022-11-24T10:56:05.989Z,60.15
2022-11-24T10:58:38.285Z,61.50
2022-11-24T11:01:32.736Z,63.90
2022-11-24T11:04:01.666Z,62.87
2022-11-24T11:06:31.610Z,60.56
2022-11-24T11:09:08.763Z,57.22
2022-11-24T11:11:39.262Z,54.03
2022-11-24T11:14:11.089Z,56.01
2022-11-24T11:16:46.075Z,54.92
2022-11-24T11:19:48.899Z,55.99
2022-11-24T11:22:33.970Z,58.80
2022-11-24T11:25:35.967Z,62.11
2022-11-24T11:28:30.069Z,61.16
2022-11-24T11:31:16.564Z,56.50
2022-11-24T11:34:25.006Z,49.41
2022-11-24T11:36:57.231Z,44.82
2022-11-24T11:39:30.994Z,41.47
2022-11-24T11:43:00.748Z,38.49
2022-11-24T11:45:37.341Z,35.22
2022-11-24T11:48:04.578Z,32.62
2022-11-24T11:53:54.948Z,34.65
2022-11-24T11:59:55.079Z,37.17
2022-11-24T12:03:11.801Z,39.72
2022-11-24T12:06:30.447Z,42.48
2022-11-24T12:09:30.259Z,43.35
2022-11-24T12:12:51.813Z,43.73
2022-11-24T12:15:49.325Z,44.80
2022-11-24T12:18:55.950Z,47.12
2022-11-24T12:21:41.652Z,47.27
2022-11-24T12:24:46.265Z,47.38
2022-11-24T12:27:38.994Z,47.62
2022-11-24T12:30:17.318Z,47.95
2022-11-24T12:33:21.682Z,46.08
2022-11-24T12:36:53.440Z,42.97
2022-11-24T12:39:36.123Z,41.57
2022-11-24T12:42:37.159Z,41.82
2022-11-24T12:45:14.757Z,42.67
2022-11-24T12:48:22.106Z,42.95
2022-11-24T12:50:55.334Z,43.38
2022-11-24T12:53:25.611Z,45.70
2022-11-24T12:55:54.962Z,43.18
2022-11-24T12:59:14.960Z,40.24
2022-11-24T13:02:10.803Z,40.57
2022-11-24T13:05:23.537Z,39.92
2022-11-24T13:08:01.857Z,39.86
2022-11-24T13:10:55.691Z,40.80
2022-11-24T13:14:02.008Z,40.16
2022-11-24T13:16:44.507Z,39.17
2022-11-24T13:19:25.799Z,38.54
2022-11-24T13:22:25.223Z,38.95
2022-11-24T13:25:34.501Z,38.13
2022-11-24T13:28:53.922Z,37.28
2022-11-24T13:31:23.342Z,38.94
2022-11-24T13:33:51.228Z,39.08
2022-11-24T13:36:26.156Z,40.92
2022-11-24T13:38:59.922Z,39.78
2022-11-24T13:41:33.964Z,40.29
2022-11-24T13:44:24.522Z,41.23
2022-11-24T13:47:41.461Z,42.52
2022-11-24T13:50:21.424Z,42.39
2022-11-24T13:53:17.248Z,41.83
2022-11-24T13:56:10.074Z,42.17
2022-11-24T13:58:48.981Z,42.17
2022-11-24T14:01:48.424Z,42.88
2022-11-24T14:04:30.998Z,42.45
2022-11-24T14:07:08.984Z,42.89
2022-11-24T14:10:17.959Z,42.00
2022-11-24T14:12:45.709Z,42.45
2022-11-24T14:15:26.254Z,41.75
2022-11-24T14:17:56.720Z,40.84
2022-11-24T14:20:37.086Z,39.79
2022-11-24T14:23:18.653Z,39.97
2022-11-24T14:25:52.242Z,40.56
2022-11-24T14:28:51.862Z,40.18
2022-11-24T14:31:33.837Z,40.25
2022-11-24T14:34:19.357Z,42.15
2022-11-24T14:36:52.301Z,41.56
2022-11-24T14:39:27.662Z,42.36
2022-11-24T14:42:06.497Z,42.97
2022-11-24T14:44:55.227Z,41.99
2022-11-24T14:47:38.575Z,41.90
2022-11-24T14:50:19.664Z,42.37
2022-11-24T14:52:57.629Z,41.71
2022-11-24T14:55:35.597Z,41.65
2022-11-24T14:58:28.659Z,42.13
2022-11-24T15:01:28.578Z,41.68
2022-11-24T15:05:00.782Z,42.62
2022-11-24T15:07:29.473Z,43.13
2022-11-24T15:10:02.302Z,42.64
2022-11-24T15:12:55.845Z,43.86
2022-11-24T15:15:39.367Z,43.41
2022-11-24T15:18:35.156Z,43.24
2022-11-24T15:21:15.584Z,43.76
2022-11-24T15:24:26.415Z,42.77
2022-11-24T15:27:02.664Z,43.10
2022-11-24T15:29:31.780Z,44.74
2022-11-24T15:32:17.451Z,44.98
2022-11-24T15:35:27.069Z,45.40
2022-11-24T15:38:30.367Z,44.59
2022-11-24T15:41:35.716Z,45.87
2022-11-24T15:44:03.971Z,45.15
2022-11-24T15:46:46.586Z,45.36
2022-11-24T15:49:25.876Z,45.69
2022-11-24T15:52:00.980Z,45.81
2022-11-24T15:54:29.750Z,45.99
2022-11-24T15:57:02.401Z,45.88
2022-11-24T15:59:31.264Z,45.96
2022-11-24T16:01:59.187Z,46.12
2022-11-24T16:04:28.347Z,47.40
2022-11-24T16:06:56.910Z,46.91
2022-11-24T16:09:24.996Z,48.21
2022-11-24T16:11:53.768Z,49.11
2022-11-24T16:14:22.045Z,49.42
2022-11-24T16:16:52.934Z,51.16
2022-11-24T16:19:21.197Z,50.93
2022-11-24T16:21:49.623Z,52.03
2022-11-24T16:24:26.081Z,52.97
2022-11-24T16:27:19.677Z,54.57
2022-11-24T16:29:47.395Z,54.41
2022-11-24T16:32:14.705Z,55.53
2022-11-24T16:34:42.115Z,55.65
2022-11-24T16:37:10.441Z,55.05
2022-11-24T16:39:37.992Z,54.92
2022-11-24T16:42:05.716Z,56.07
2022-11-24T16:44:34.575Z,57.91
2022-11-24T16:47:02.234Z,59.42
2022-11-24T16:49:29.889Z,58.95
2022-11-24T16:51:57.968Z,58.64
2022-11-24T16:54:26.005Z,59.70
2022-11-24T16:56:53.813Z,59.77
2022-11-24T16:59:21.476Z,59.34
2022-11-24T17:01:50.679Z,58.17
2022-11-24T17:04:18.586Z,58.75
2022-11-24T17:06:48.447Z,58.97
2022-11-24T17:09:17.279Z,59.25
2022-11-24T17:11:45.487Z,59.45
2022-11-24T17:14:16.000Z,59.56
2022-11-24T17:16:43.479Z,60.89
2022-11-24T17:19:14.063Z,60.72
2022-11-24T17:21:41.513Z,60.98
2022-11-24T17:24:15.052Z,61.53
2022-11-24T17:26:47.464Z,61.19
2022-11-24T17:29:16.543Z,61.51
2022-11-24T17:31:44.267Z,61.58
2022-11-24T17:34:12.922Z,62.00
2022-11-24T17:36:41.559Z,62.81
2022-11-24T17:39:11.127Z,63.49
2022-11-24T17:41:38.846Z,63.96
2022-11-24T17:44:10.612Z,63.70
2022-11-24T17:46:39.123Z,63.46
2022-11-24T17:49:08.538Z,63.97
2022-11-24T17:51:36.040Z,63.31
2022-11-24T17:54:24.695Z,62.57
2022-11-24T17:56:51.143Z,64.47
2022-11-24T17:59:18.836Z,65.15
2022-11-24T18:01:46.472Z,66.53
2022-11-24T18:04:13.874Z,65.98
2022-11-24T18:06:41.312Z,66.08
2022-11-24T18:09:08.970Z,65.64
2022-11-24T18:11:37.071Z,63.82
2022-11-24T18:14:07.611Z,62.39
2022-11-24T18:17:11.466Z,63.05
2022-11-24T18:19:59.371Z,62.77
2022-11-24T18:22:50.179Z,64.47
2022-11-24T18:25:14.572Z,64.12
2022-11-24T18:27:41.897Z,65.11
2022-11-24T18:30:10.210Z,64.74
2022-11-24T18:33:03.670Z,63.98
2022-11-24T18:35:31.092Z,64.13
2022-11-24T18:37:58.504Z,65.83
2022-11-24T18:40:25.998Z,65.19
2022-11-24T18:42:53.698Z,65.84
2022-11-24T18:45:21.257Z,66.25
2022-11-24T18:47:48.570Z,64.89
2022-11-24T18:50:17.538Z,65.34
2022-11-24T18:52:45.009Z,65.73
2022-11-24T18:55:15.670Z,65.70
2022-11-24T18:57:50.632Z,67.57
2022-11-24T19:00:18.348Z,68.16
2022-11-24T19:02:51.022Z,68.62
2022-11-24T19:05:20.067Z,69.89
2022-11-24T19:07:47.777Z,69.68
2022-11-24T19:10:16.022Z,67.04
2022-11-24T19:12:45.135Z,65.30
2022-11-24T19:15:13.009Z,63.60
2022-11-24T19:17:40.653Z,64.35
2022-11-24T19:20:08.660Z,65.34
2022-11-24T19:22:36.236Z,66.05
2022-11-24T19:25:04.416Z,66.28
2022-11-24T19:27:34.467Z,66.40
2022-11-24T19:30:02.483Z,67.04
2022-11-24T19:32:32.642Z,65.55
2022-11-24T19:35:00.923Z,66.70
2022-11-24T19:37:32.514Z,68.61
2022-11-24T19:40:01.224Z,68.69
2022-11-24T19:42:29.242Z,68.13
2022-11-24T19:44:57.042Z,68.84
2022-11-24T19:47:24.554Z,68.54
2022-11-24T19:49:51.950Z,66.69
2022-11-24T19:52:19.816Z,66.80
2022-11-24T19:54:47.439Z,68.31
2022-11-24T19:57:15.206Z,68.34
2022-11-24T19:59:43.479Z,66.44
2022-11-24T20:02:13.830Z,67.30
2022-11-24T20:04:43.038Z,65.95
2022-11-24T20:07:12.667Z,66.58
2022-11-24T20:09:40.400Z,67.37
2022-11-24T20:12:09.829Z,65.09
2022-11-24T20:14:37.550Z,64.84
2022-11-24T20:17:06.695Z,64.91
2022-11-24T20:19:34.336Z,66.67
2022-11-24T20:22:02.205Z,68.13
2022-11-24T20:24:29.531Z,67.43
2022-11-24T20:27:01.308Z,68.44
2022-11-24T20:29:29.196Z,69.25
2022-11-24T20:31:57.342Z,69.58
2022-11-24T20:34:26.333Z,69.79
2022-11-24T20:36:56.299Z,70.87
2022-11-24T20:39:27.788Z,70.76
2022-11-24T20:41:56.412Z,69.70
2022-11-24T20:44:26.570Z,69.66
2022-11-24T20:46:58.061Z,69.93
2022-11-24T20:49:28.235Z,68.28
2022-11-24T20:51:57.090Z,67.44
2022-11-24T20:54:24.646Z,66.98
2022-11-24T20:56:52.100Z,67.40
2022-11-24T20:59:23.466Z,67.33
2022-11-24T21:01:55.204Z,67.21
2022-11-24T21:04:28.092Z,67.54
2022-11-24T21:06:57.885Z,67.88
2022-11-24T21:09:27.088Z,68.56
2022-11-24T21:11:54.636Z,69.24
2022-11-24T21:14:21.798Z,69.74
2022-11-24T21:16:50.174Z,70.28
2022-11-24T21:19:18.695Z,69.89
2022-11-24T21:21:47.674Z,69.54
2022-11-24T21:24:21.673Z,69.45
2022-11-24T21:26:51.646Z,69.26
2022-11-24T21:29:22.317Z,68.90
2022-11-24T21:31:49.989Z,67.10
2022-11-24T21:34:19.166Z,68.20
2022-11-24T21:36:47.398Z,67.79
2022-11-24T21:39:15.752Z,67.70
2022-11-24T21:41:44.031Z,68.89
2022-11-24T21:44:13.671Z,67.87
2022-11-24T21:46:46.099Z,68.30
2022-11-24T21:49:16.814Z,69.65
2022-11-24T21:51:44.063Z,69.39
2022-11-24T21:54:11.351Z,68.86
2022-11-24T21:56:38.446Z,67.41
2022-11-24T21:59:05.795Z,67.43
2022-11-24T22:01:33.040Z,67.73
2022-11-24T22:04:00.328Z,68.03
2022-11-24T22:06:27.570Z,67.98
2022-11-24T22:11:52.546Z,68.26
2022-11-24T22:14:19.735Z,68.07
2022-11-24T22:16:47.381Z,68.04
2022-11-24T22:19:14.751Z,67.71
2022-11-24T22:21:42.018Z,69.84
2022-11-24T22:24:09.397Z,69.64
2022-11-24T22:26:36.825Z,69.68
2022-11-24T22:29:04.411Z,69.36
2022-11-24T22:31:34.339Z,69.02
2022-11-24T22:34:01.807Z,70.31
2022-11-24T22:36:30.947Z,70.74
2022-11-24T22:39:05.592Z,70.32
2022-11-24T22:41:35.586Z,69.87
2022-11-24T22:44:04.089Z,69.69
2022-11-24T22:46:32.833Z,68.31
2022-11-24T22:49:01.902Z,68.38
2022-11-24T22:51:34.520Z,69.47
2022-11-24T22:54:05.041Z,68.57
2022-11-24T22:56:34.015Z,67.64
2022-11-24T22:59:19.583Z,68.67
2022-11-24T23:01:46.755Z,69.99
2022-11-24T23:04:14.089Z,69.76
2022-11-24T23:06:41.309Z,69.57
2022-11-24T23:09:12.240Z,69.18
2022-11-24T23:11:41.140Z,67.85
2022-11-24T23:14:15.576Z,68.09
2022-11-24T23:16:43.751Z,68.17
2022-11-24T23:19:11.279Z,67.63
2022-11-24T23:21:39.473Z,67.51
2022-11-24T23:24:08.719Z,67.81
2022-11-24T23:26:40.766Z,68.69
2022-11-24T23:29:10.075Z,67.75
2022-11-24T23:31:40.044Z,66.70
2022-11-24T23:34:07.815Z,68.04
2022-11-24T23:36:35.026Z,68.37
2022-11-24T23:39:11.145Z,68.34
2022-11-24T23:41:38.428Z,67.70
2022-11-24T23:44:06.625Z,66.61
2022-11-24T23:46:34.174Z,67.40
2022-11-24T23:49:01.360Z,67.88
2022-11-24T23:51:32.470Z,68.30
2022-11-24T23:54:01.165Z,67.64
2022-11-24T23:56:33.112Z,67.69
2022-11-24T23:59:03.626Z,68.18
